TimeCST,TemperatureF,Dew PointF,Humidity,Sea Level PressureIn,VisibilityMPH,Wind Direction,Wind SpeedMPH,Gust SpeedMPH,PrecipitationIn,Events,Conditions,WindDirDegrees,DateUTC
12:15 AM,52.0,52.0,100,29.97,5.0,SE,3.5,-,N/A,,Overcast,140,2012-12-07 06:15:00
12:35 AM,52.3,52.3,100,29.97,7.0,Calm,Calm,-,N/A,,Overcast,0,2012-12-07 06:35:00
12:55 AM,52.3,52.3,100,29.96,7.0,Calm,Calm,-,N/A,,Overcast,0,2012-12-07 06:55:00
1:15 AM,52.7,52.7,100,29.96,7.0,Calm,Calm,-,N/A,,Overcast,0,2012-12-07 07:15:00
1:35 AM,52.7,52.7,100,29.97,7.0,Calm,Calm,-,N/A,,Overcast,0,2012-12-07 07:35:00
1:55 AM,52.9,52.9,100,29.96,5.0,Calm,Calm,-,0.01,Rain,Light Rain,0,2012-12-07 07:55:00
2:15 AM,52.9,52.9,100,29.96,5.0,Calm,Calm,-,N/A,Rain,Light Rain,0,2012-12-07 08:15:00
2:35 AM,52.9,52.9,100,29.96,2.5,Calm,Calm,-,0.09,Rain,Heavy Rain,0,2012-12-07 08:35:00
2:55 AM,52.7,52.7,100,29.95,1.5,NNE,4.6,-,0.25,Rain,Light Rain,20,2012-12-07 08:55:00
3:15 AM,53.6,53.6,100,29.94,2.0,SE,3.5,-,0.10,Rain,Heavy Rain,140,2012-12-07 09:15:00
3:35 AM,53.4,53.4,100,29.94,2.0,Calm,Calm,-,0.14,Rain,Rain,0,2012-12-07 09:35:00
3:55 AM,54.0,54.0,100,29.94,2.5,Calm,Calm,-,0.19,Rain,Heavy Rain,0,2012-12-07 09:55:00
4:15 AM,53.6,53.6,100,29.94,1.5,Calm,Calm,-,0.05,Rain,Rain,0,2012-12-07 10:15:00
4:35 AM,53.8,53.8,100,29.94,1.2,Calm,Calm,-,0.08,Rain,Rain,0,2012-12-07 10:35:00
4:55 AM,53.6,53.6,100,29.94,1.5,Calm,Calm,-,0.10,Rain,Light Rain,0,2012-12-07 10:55:00
5:15 AM,53.6,53.6,100,29.94,1.2,Calm,Calm,-,N/A,Rain,Rain,0,2012-12-07 11:15:00
5:35 AM,53.6,53.6,100,29.94,1.2,Calm,Calm,-,N/A,,Overcast,0,2012-12-07 11:35:00
5:55 AM,53.8,53.8,100,29.94,1.2,Calm,Calm,-,0.04,Rain,Heavy Rain,0,2012-12-07 11:55:00
6:15 AM,54.7,54.7,100,29.95,2.0,SE,3.5,-,0.01,,Overcast,130,2012-12-07 12:15:00
6:35 AM,55.4,55.4,100,29.95,3.0,Calm,Calm,-,0.01,Rain,Light Rain,0,2012-12-07 12:35:00
6:55 AM,55.4,55.4,100,29.94,5.0,South,4.6,-,0.04,Rain,Light Rain,170,2012-12-07 12:55:00
7:15 AM,55.4,55.4,100,29.94,7.0,South,6.9,-,N/A,Rain,Rain,180,2012-12-07 13:15:00
7:35 AM,55.4,55.4,100,29.93,2.5,South,5.8,-,0.05,Rain,Light Rain,180,2012-12-07 13:35:00
7:55 AM,55.4,55.4,100,29.94,5.0,South,5.8,-,0.06,,Drizzle,180,2012-12-07 13:55:00
8:15 AM,55.8,55.8,100,29.94,10.0,South,8.1,-,N/A,,Overcast,180,2012-12-07 14:15:00
8:35 AM,56.1,55.9,99,29.94,7.0,South,5.8,-,N/A,Rain,Light Rain,190,2012-12-07 14:35:00
8:55 AM,56.3,56.3,100,29.94,10.0,South,6.9,-,N/A,,Overcast,190,2012-12-07 14:55:00
9:15 AM,56.5,56.1,99,29.94,10.0,SSW,8.1,-,N/A,Rain,Light Rain,200,2012-12-07 15:15:00
9:35 AM,56.3,56.3,100,29.94,5.0,SSW,8.1,-,0.05,Rain,Heavy Rain,210,2012-12-07 15:35:00
9:55 AM,57.2,57.0,99,29.94,10.0,SSW,6.9,-,0.06,Rain,Light Rain,210,2012-12-07 15:55:00
10:15 AM,57.4,57.2,99,29.94,7.0,SSW,6.9,-,N/A,,Drizzle,210,2012-12-07 16:15:00
10:35 AM,57.2,57.2,100,29.93,4.0,SSW,6.9,-,0.01,Rain,Rain,210,2012-12-07 16:35:00
10:55 AM,57.2,57.2,100,29.93,3.0,SSW,5.8,-,0.03,Rain,Heavy Rain,200,2012-12-07 16:55:00
11:15 AM,57.4,57.4,100,29.91,5.0,SSW,6.9,-,N/A,,Overcast,200,2012-12-07 17:15:00
11:35 AM,57.6,57.6,100,29.91,5.0,SSW,6.9,-,N/A,,Overcast,200,2012-12-07 17:35:00
11:55 AM,57.7,57.7,100,29.90,3.0,SSW,6.9,-,0.01,Rain,Heavy Rain,200,2012-12-07 17:55:00
12:15 PM,58.1,58.1,100,29.89,2.5,SSW,6.9,-,0.01,,Drizzle,200,2012-12-07 18:15:00
12:35 PM,58.3,58.3,100,29.88,5.0,SSW,6.9,-,0.01,,Overcast,210,2012-12-07 18:35:00
12:55 PM,58.8,58.8,100,29.88,4.0,SSW,8.1,-,0.01,,Overcast,200,2012-12-07 18:55:00
1:15 PM,59.0,59.0,100,29.87,5.0,SSW,6.9,-,N/A,,Overcast,200,2012-12-07 19:15:00
1:35 PM,59.0,59.0,100,29.86,3.0,SSW,6.9,-,N/A,,Overcast,210,2012-12-07 19:35:00
1:55 PM,59.2,59.2,100,29.86,2.0,SSW,6.9,-,N/A,,Overcast,210,2012-12-07 19:55:00
2:15 PM,59.4,59.4,100,29.86,2.5,SW,6.9,-,N/A,,Overcast,230,2012-12-07 20:15:00
2:35 PM,59.9,59.9,100,29.86,4.0,SW,6.9,-,N/A,,Overcast,220,2012-12-07 20:35:00
2:55 PM,59.9,59.9,100,29.87,4.0,SW,5.8,-,N/A,,Overcast,220,2012-12-07 20:55:00
3:15 PM,59.9,59.9,100,29.87,4.0,SW,4.6,-,N/A,,Light Drizzle,220,2012-12-07 21:15:00
3:35 PM,59.9,59.9,100,29.87,4.0,SSW,3.5,-,N/A,,Overcast,210,2012-12-07 21:35:00
3:55 PM,59.9,59.9,100,29.87,5.0,SSW,4.6,-,N/A,,Overcast,210,2012-12-07 21:55:00
4:15 PM,59.4,59.4,100,29.87,4.0,South,3.5,-,N/A,,Mostly Cloudy,190,2012-12-07 22:15:00
4:35 PM,59.0,59.0,100,29.86,3.0,Calm,Calm,-,N/A,,Mostly Cloudy,0,2012-12-07 22:35:00
4:55 PM,58.6,58.6,100,29.87,5.0,South,5.8,-,N/A,,Mostly Cloudy,170,2012-12-07 22:55:00
5:15 PM,58.3,58.3,100,29.87,7.0,SSW,3.5,-,N/A,,Scattered Clouds,200,2012-12-07 23:15:00
5:35 PM,58.1,58.1,100,29.87,7.0,SSW,3.5,-,N/A,,Clear,200,2012-12-07 23:35:00
5:55 PM,57.9,57.9,100,29.88,7.0,SSW,5.8,-,N/A,,Clear,210,2012-12-07 23:55:00
6:15 PM,58.3,58.3,100,29.88,7.0,SSW,5.8,-,N/A,,Scattered Clouds,200,2012-12-08 00:15:00
6:35 PM,59.0,59.0,100,29.88,7.0,SSW,6.9,-,N/A,,Mostly Cloudy,210,2012-12-08 00:35:00
7:15 PM,59.2,59.2,100,29.88,7.0,SSW,6.9,-,N/A,,Overcast,210,2012-12-08 01:15:00
7:35 PM,59.2,59.2,100,29.89,7.0,SSW,5.8,-,N/A,,Overcast,210,2012-12-08 01:35:00
7:55 PM,59.4,59.4,100,29.89,7.0,SSW,6.9,-,N/A,,Overcast,210,2012-12-08 01:55:00
8:15 PM,59.4,59.4,100,29.89,7.0,SSW,5.8,-,N/A,,Overcast,210,2012-12-08 02:15:00
8:35 PM,59.5,59.5,100,29.89,7.0,SSW,5.8,-,N/A,,Overcast,200,2012-12-08 02:35:00
8:55 PM,59.2,59.2,100,29.89,5.0,South,5.8,-,N/A,,Overcast,190,2012-12-08 02:55:00
9:15 PM,59.2,59.2,100,29.89,7.0,SSW,8.1,-,N/A,,Overcast,200,2012-12-08 03:15:00
9:35 PM,59.4,59.4,100,29.89,7.0,SW,8.1,-,N/A,,Overcast,220,2012-12-08 03:35:00
9:55 PM,59.4,59.4,100,29.89,7.0,SW,5.8,-,N/A,,Overcast,230,2012-12-08 03:55:00
10:15 PM,59.4,59.4,100,29.89,5.0,South,5.8,-,N/A,,Overcast,190,2012-12-08 04:15:00
10:35 PM,59.4,59.4,100,29.89,7.0,SSW,3.5,-,N/A,,Overcast,210,2012-12-08 04:35:00
10:55 PM,59.4,59.4,100,29.88,7.0,South,5.8,-,N/A,,Overcast,190,2012-12-08 04:55:00
11:15 PM,59.9,59.5,99,29.88,7.0,SSW,6.9,-,N/A,,Overcast,210,2012-12-08 05:15:00
11:35 PM,59.9,59.9,100,29.88,7.0,SSW,6.9,-,N/A,,Overcast,200,2012-12-08 05:35:00
11:55 PM,59.9,59.9,100,29.87,7.0,SW,5.8,-,N/A,,Overcast,220,2012-12-08 05:55:00